createdAt,value
2022-12-08T00:00:55.157Z,0.21
2022-12-08T00:03:28.436Z,0.17
2022-12-08T00:06:18.660Z,0.13
2022-12-08T00:09:09.283Z,0.11
2022-12-08T00:11:41.431Z,0.10
2022-12-08T00:14:13.629Z,0.10
2022-12-08T00:16:45.635Z,0.10
2022-12-08T00:19:18.602Z,0.08
2022-12-08T00:21:51.276Z,0.07
2022-12-08T00:24:26.424Z,0.04
2022-12-08T00:27:01.904Z,-0.01
2022-12-08T00:29:37.052Z,-0.06
2022-12-08T00:32:10.732Z,-0.08
2022-12-08T00:34:45.241Z,-0.11
2022-12-08T00:37:17.466Z,-0.13
2022-12-08T00:39:52.301Z,-0.12
2022-12-08T00:42:24.780Z,-0.12
2022-12-08T00:44:56.972Z,-0.14
2022-12-08T00:47:29.777Z,-0.17
2022-12-08T00:50:03.995Z,-0.24
2022-12-08T00:52:38.116Z,-0.31
2022-12-08T00:55:13.005Z,-0.37
2022-12-08T00:57:45.405Z,-0.43
2022-12-08T01:00:19.287Z,-0.48
2022-12-08T01:02:51.458Z,-0.51
2022-12-08T01:05:23.755Z,-0.51
2022-12-08T01:07:56.178Z,-0.52
2022-12-08T01:10:28.575Z,-0.53
2022-12-08T01:13:03.318Z,-0.55
2022-12-08T01:15:35.668Z,-0.56
2022-12-08T01:18:08.179Z,-0.58
2022-12-08T01:20:40.476Z,-0.60
2022-12-08T01:23:12.683Z,-0.62
2022-12-08T01:25:44.988Z,-0.63
2022-12-08T01:28:17.370Z,-0.63
2022-12-08T01:30:55.631Z,-0.63
2022-12-08T01:33:28.311Z,-0.64
2022-12-08T01:36:06.158Z,-0.64
2022-12-08T01:38:46.120Z,-0.64
2022-12-08T01:41:20.755Z,-0.64
2022-12-08T01:44:03.119Z,-0.64
2022-12-08T01:46:37.558Z,-0.65
2022-12-08T01:49:14.944Z,-0.65
2022-12-08T01:51:51.797Z,-0.64
2022-12-08T01:54:27.896Z,-0.64
2022-12-08T01:57:07.701Z,-0.61
2022-12-08T01:59:44.785Z,-0.58
2022-12-08T02:02:17.462Z,-0.55
2022-12-08T02:04:50.035Z,-0.54
2022-12-08T02:07:23.481Z,-0.54
2022-12-08T02:09:56.159Z,-0.56
2022-12-08T02:12:28.604Z,-0.58
2022-12-08T02:15:05.360Z,-0.60
2022-12-08T02:17:51.831Z,-0.61
2022-12-08T02:20:44.477Z,-0.61
2022-12-08T02:23:27.989Z,-0.61
2022-12-08T02:26:25.764Z,-0.60
2022-12-08T02:29:45.659Z,-0.60
2022-12-08T02:32:53.450Z,-0.59
2022-12-08T02:35:37.623Z,-0.61
2022-12-08T02:38:17.013Z,-0.63
2022-12-08T02:40:57.168Z,-0.65
2022-12-08T02:43:40.565Z,-0.69
2022-12-08T02:46:15.832Z,-0.71
2022-12-08T02:48:48.929Z,-0.73
2022-12-08T02:51:20.990Z,-0.72
2022-12-08T02:54:04.161Z,-0.69
2022-12-08T02:56:51.779Z,-0.67
2022-12-08T02:59:42.296Z,-0.65
2022-12-08T03:02:30.484Z,-0.65
2022-12-08T03:05:13.359Z,-0.66
2022-12-08T03:07:51.340Z,-0.70
2022-12-08T03:10:31.896Z,-0.76
2022-12-08T03:13:11.115Z,-0.81
2022-12-08T03:15:45.553Z,-0.87
2022-12-08T03:18:20.792Z,-0.91
2022-12-08T03:20:53.184Z,-0.94
2022-12-08T03:23:28.523Z,-0.93
2022-12-08T03:26:09.502Z,-0.92
2022-12-08T03:28:49.731Z,-0.91
2022-12-08T03:31:24.487Z,-0.89
2022-12-08T03:33:59.738Z,-0.88
2022-12-08T03:36:33.788Z,-0.89
2022-12-08T03:39:06.476Z,-0.91
2022-12-08T03:41:38.659Z,-0.93
2022-12-08T03:44:10.768Z,-0.95
2022-12-08T03:46:42.744Z,-0.96
2022-12-08T03:49:14.835Z,-0.95
2022-12-08T03:51:46.965Z,-0.94
2022-12-08T03:54:19.306Z,-0.92
2022-12-08T03:56:52.048Z,-0.91
2022-12-08T03:59:24.229Z,-0.93
2022-12-08T04:01:56.245Z,-0.95
2022-12-08T04:04:31.289Z,-0.98
2022-12-08T04:07:04.635Z,-1.01
2022-12-08T04:09:36.754Z,-1.05
2022-12-08T04:12:09.715Z,-1.03
2022-12-08T04:14:41.837Z,-1.01
2022-12-08T04:17:14.555Z,-0.97
2022-12-08T04:19:46.543Z,-0.92
2022-12-08T04:22:19.877Z,-0.88
2022-12-08T04:24:52.938Z,-0.84
2022-12-08T04:27:25.029Z,-0.81
2022-12-08T04:29:57.107Z,-0.78
2022-12-08T04:32:29.268Z,-0.76
2022-12-08T04:35:01.270Z,-0.73
2022-12-08T04:37:34.646Z,-0.70
2022-12-08T04:40:10.767Z,-0.66
2022-12-08T04:42:43.400Z,-0.61
2022-12-08T04:45:16.621Z,-0.56
2022-12-08T04:47:50.289Z,-0.52
2022-12-08T04:50:22.548Z,-0.50
2022-12-08T04:52:55.083Z,-0.51
2022-12-08T04:55:27.319Z,-0.55
2022-12-08T04:57:59.701Z,-0.59
2022-12-08T05:00:32.394Z,-0.63
2022-12-08T05:03:07.203Z,-0.68
2022-12-08T05:05:42.157Z,-0.72
2022-12-08T05:08:14.710Z,-0.74
2022-12-08T05:10:49.471Z,-0.75
2022-12-08T05:13:21.720Z,-0.75
2022-12-08T05:15:55.935Z,-0.73
2022-12-08T05:18:28.285Z,-0.73
2022-12-08T05:21:03.960Z,-0.73
2022-12-08T05:23:44.030Z,-0.73
2022-12-08T05:26:16.745Z,-0.73
2022-12-08T05:28:48.941Z,-0.75
2022-12-08T05:31:21.456Z,-0.78
2022-12-08T05:34:02.759Z,-0.79
2022-12-08T05:36:35.803Z,-0.79
2022-12-08T05:39:08.640Z,-0.76
2022-12-08T05:41:40.916Z,-0.73
2022-12-08T05:44:12.932Z,-0.69
2022-12-08T05:46:47.363Z,-0.66
2022-12-08T05:49:19.829Z,-0.64
2022-12-08T05:51:51.843Z,-0.66
2022-12-08T05:54:24.220Z,-0.68
2022-12-08T05:56:56.520Z,-0.71
2022-12-08T05:59:28.615Z,-0.77
2022-12-08T06:02:00.762Z,-0.78
2022-12-08T06:04:35.851Z,-0.77
2022-12-08T06:07:15.917Z,-0.74
2022-12-08T06:09:48.585Z,-0.69
2022-12-08T06:12:21.326Z,-0.63
2022-12-08T06:14:53.697Z,-0.58
2022-12-08T06:17:25.619Z,-0.55
2022-12-08T06:19:57.674Z,-0.53
2022-12-08T06:22:29.697Z,-0.52
2022-12-08T06:25:08.484Z,-0.53
2022-12-08T06:27:44.154Z,-0.53
2022-12-08T06:30:17.003Z,-0.54
2022-12-08T06:32:49.280Z,-0.54
2022-12-08T06:35:23.485Z,-0.55
2022-12-08T06:37:57.095Z,-0.54
2022-12-08T06:40:29.264Z,-0.53
2022-12-08T06:43:01.548Z,-0.50
2022-12-08T06:45:35.155Z,-0.47
2022-12-08T06:48:09.929Z,-0.46
2022-12-08T06:50:43.249Z,-0.46
2022-12-08T06:53:16.399Z,-0.48
2022-12-08T06:55:59.439Z,-0.50
2022-12-08T06:58:39.719Z,-0.51
2022-12-08T07:01:14.181Z,-0.56
2022-12-08T07:03:50.173Z,-0.61
2022-12-08T07:06:24.756Z,-0.65
2022-12-08T07:09:01.307Z,-0.69
2022-12-08T07:11:34.594Z,-0.71
2022-12-08T07:14:07.932Z,-0.73
2022-12-08T07:16:41.577Z,-0.75
2022-12-08T07:19:15.907Z,-0.72
2022-12-08T07:21:48.665Z,-0.70
2022-12-08T07:24:20.784Z,-0.71
2022-12-08T07:26:52.768Z,-0.73
2022-12-08T07:29:26.517Z,-0.76
2022-12-08T07:31:59.187Z,-0.79
2022-12-08T07:34:31.325Z,-0.83
2022-12-08T07:37:06.507Z,-0.87
2022-12-08T07:39:40.764Z,-0.90
2022-12-08T07:42:13.002Z,-0.91
2022-12-08T07:44:47.021Z,-0.90
2022-12-08T07:47:19.413Z,-0.88
2022-12-08T07:49:52.312Z,-0.85
2022-12-08T07:52:24.717Z,-0.80
2022-12-08T07:54:56.950Z,-0.76
2022-12-08T07:57:29.442Z,-0.73
2022-12-08T08:00:01.863Z,-0.71
2022-12-08T08:02:44.678Z,-0.68
2022-12-08T08:05:16.981Z,-0.68
2022-12-08T08:07:49.471Z,-0.65
2022-12-08T08:10:21.958Z,-0.64
2022-12-08T08:12:54.182Z,-0.60
2022-12-08T08:15:26.320Z,-0.55
2022-12-08T08:18:01.831Z,-0.46
2022-12-08T08:20:34.011Z,-0.37
2022-12-08T08:23:07.145Z,-0.29
2022-12-08T08:25:39.769Z,-0.21
2022-12-08T08:28:12.304Z,-0.16
2022-12-08T08:30:44.502Z,-0.11
2022-12-08T08:33:19.253Z,-0.07
2022-12-08T08:35:51.520Z,-0.02
2022-12-08T08:38:24.188Z,0.06
2022-12-08T08:40:56.244Z,0.08
2022-12-08T08:43:38.375Z,0.11
2022-12-08T08:46:11.633Z,0.14
2022-12-08T08:48:46.312Z,0.19
2022-12-08T08:51:18.736Z,0.29
2022-12-08T08:54:02.665Z,0.40
2022-12-08T08:56:39.730Z,0.51
2022-12-08T08:59:12.327Z,0.64
2022-12-08T09:01:44.689Z,0.74
2022-12-08T09:04:16.901Z,0.79
2022-12-08T09:06:49.688Z,0.83
2022-12-08T09:09:22.650Z,0.87
2022-12-08T09:11:56.396Z,0.92
2022-12-08T09:14:28.605Z,1.00
2022-12-08T09:17:01.030Z,1.10
2022-12-08T09:19:33.493Z,1.24
2022-12-08T09:22:10.848Z,1.35
2022-12-08T09:24:46.133Z,1.47
2022-12-08T09:27:19.218Z,1.53
2022-12-08T09:29:51.745Z,1.57
2022-12-08T09:32:26.476Z,1.63
2022-12-08T09:35:01.975Z,1.65
2022-12-08T09:37:36.696Z,1.67
2022-12-08T09:40:26.432Z,1.72
2022-12-08T09:43:11.512Z,1.78
2022-12-08T09:45:45.407Z,1.85
2022-12-08T09:48:27.359Z,1.95
2022-12-08T09:51:06.272Z,2.02
2022-12-08T09:53:48.237Z,2.08
2022-12-08T09:56:27.685Z,2.13
2022-12-08T09:59:23.191Z,2.17
2022-12-08T10:01:58.244Z,2.20
2022-12-08T10:04:34.786Z,2.25
2022-12-08T10:07:19.694Z,2.29
2022-12-08T10:10:04.228Z,2.39
2022-12-08T10:12:51.776Z,2.44
2022-12-08T10:15:41.814Z,2.42
2022-12-08T10:18:19.486Z,2.37
2022-12-08T10:20:58.030Z,2.35
2022-12-08T10:23:47.661Z,2.33
2022-12-08T10:26:25.435Z,2.30
2022-12-08T10:29:03.648Z,2.28
2022-12-08T10:31:40.174Z,2.23
2022-12-08T10:34:24.489Z,2.18
2022-12-08T10:37:00.978Z,2.12
2022-12-08T10:39:39.087Z,2.05
2022-12-08T10:42:22.304Z,2.02
2022-12-08T10:45:04.237Z,2.08
2022-12-08T10:47:45.013Z,2.46
2022-12-08T10:50:23.388Z,2.98
2022-12-08T10:53:01.152Z,3.42
2022-12-08T10:55:43.459Z,3.66
2022-12-08T10:58:38.890Z,3.66
2022-12-08T11:01:15.797Z,3.52
2022-12-08T11:03:56.252Z,3.35
2022-12-08T11:06:35.675Z,3.21
2022-12-08T11:09:24.504Z,3.08
2022-12-08T11:11:59.035Z,2.90
2022-12-08T11:14:33.696Z,2.75
2022-12-08T11:17:10.541Z,2.66
2022-12-08T11:19:44.904Z,2.63
2022-12-08T11:22:28.898Z,2.57
2022-12-08T11:25:03.662Z,2.57
2022-12-08T11:27:38.212Z,2.60
2022-12-08T11:30:18.337Z,2.68
2022-12-08T11:32:55.648Z,2.73
2022-12-08T11:35:33.960Z,2.75
2022-12-08T11:38:21.182Z,2.76
2022-12-08T11:40:56.929Z,2.80
2022-12-08T11:43:39.868Z,2.75
2022-12-08T11:46:28.737Z,2.66
2022-12-08T11:49:06.755Z,2.58
2022-12-08T11:51:48.805Z,2.52
2022-12-08T11:54:30.254Z,2.42
2022-12-08T11:57:07.560Z,2.32
2022-12-08T11:59:50.630Z,2.27
2022-12-08T12:02:25.640Z,2.19
2022-12-08T12:05:23.602Z,2.12
2022-12-08T12:08:25.484Z,2.05
2022-12-08T12:11:17.919Z,2.03
2022-12-08T12:14:09.198Z,2.02
2022-12-08T12:17:04.337Z,2.02
2022-12-08T12:19:42.312Z,2.00
2022-12-08T12:22:22.600Z,1.94
2022-12-08T12:24:58.218Z,1.89
2022-12-08T12:27:43.155Z,1.83
2022-12-08T12:30:24.610Z,1.80
2022-12-08T12:32:59.746Z,1.79
2022-12-08T12:35:40.375Z,1.80
2022-12-08T12:38:42.231Z,1.83
2022-12-08T12:41:25.474Z,1.86
2022-12-08T12:44:38.098Z,1.91
2022-12-08T12:47:37.273Z,1.92
2022-12-08T12:50:14.333Z,1.88
2022-12-08T12:52:50.274Z,1.85
2022-12-08T12:55:31.856Z,1.83
2022-12-08T12:58:21.326Z,1.81
2022-12-08T13:01:30.461Z,1.82
2022-12-08T13:04:12.714Z,1.85
2022-12-08T13:06:57.564Z,1.88
2022-12-08T13:09:39.340Z,1.92
2022-12-08T13:12:24.671Z,1.94
2022-12-08T13:15:04.962Z,1.98
2022-12-08T13:17:48.255Z,1.96
2022-12-08T13:20:25.651Z,1.94
2022-12-08T13:23:44.183Z,1.89
2022-12-08T13:26:22.553Z,1.85
2022-12-08T13:29:21.460Z,1.83
2022-12-08T13:32:03.832Z,1.82
2022-12-08T13:34:42.292Z,1.82
2022-12-08T13:37:32.178Z,1.83
2022-12-08T13:40:10.787Z,1.81
2022-12-08T13:42:57.098Z,1.77
2022-12-08T13:46:20.270Z,1.74
2022-12-08T13:55:49.767Z,1.55
2022-12-08T13:57:49.540Z,1.50
2022-12-08T14:00:27.648Z,1.47
2022-12-08T14:03:03.156Z,1.47
2022-12-08T14:06:11.867Z,1.45
2022-12-08T14:09:01.228Z,1.41
2022-12-08T14:11:45.054Z,1.34
2022-12-08T14:14:38.913Z,1.28
2022-12-08T14:17:20.919Z,1.22
2022-12-08T14:20:08.528Z,1.17
2022-12-08T14:22:42.342Z,1.12
2022-12-08T14:25:17.148Z,1.10
2022-12-08T14:27:58.030Z,1.10
2022-12-08T14:30:34.056Z,1.11
2022-12-08T14:33:22.747Z,1.12
2022-12-08T14:36:08.541Z,1.14
2022-12-08T14:38:46.310Z,1.14
2022-12-08T14:44:34.696Z,1.11
2022-12-08T14:47:09.193Z,1.08
2022-12-08T14:49:44.719Z,1.04
2022-12-08T14:52:24.005Z,1.03
2022-12-08T14:54:58.222Z,1.01
2022-12-08T14:57:37.477Z,1.02
2022-12-08T15:00:28.533Z,1.02
2022-12-08T15:03:09.309Z,1.04
2022-12-08T15:05:42.067Z,1.03
2022-12-08T15:08:15.551Z,1.04
2022-12-08T15:10:48.914Z,1.04
2022-12-08T15:13:25.947Z,1.02
2022-12-08T15:16:03.292Z,0.98
2022-12-08T15:18:45.028Z,0.93
2022-12-08T15:21:20.461Z,0.89
2022-12-08T15:23:56.308Z,0.88
2022-12-08T15:26:47.049Z,0.89
2022-12-08T15:29:29.173Z,0.90
2022-12-08T15:32:02.918Z,0.93
2022-12-08T15:34:37.738Z,0.97
2022-12-08T15:37:26.101Z,1.00
2022-12-08T15:39:59.550Z,1.01
2022-12-08T15:42:32.492Z,1.00
2022-12-08T15:45:06.690Z,0.98
2022-12-08T15:47:40.144Z,0.97
2022-12-08T15:50:21.366Z,0.93
2022-12-08T15:52:58.865Z,0.90
2022-12-08T15:55:45.778Z,0.89
2022-12-08T16:01:18.809Z,0.91
2022-12-08T16:09:45.236Z,0.97
2022-12-08T16:15:59.005Z,0.95
2022-12-08T16:18:38.489Z,0.94
2022-12-08T16:21:41.833Z,0.96
2022-12-08T16:24:14.991Z,0.99
2022-12-08T16:29:48.349Z,1.08
2022-12-08T16:32:22.261Z,1.12
2022-12-08T16:34:58.346Z,1.15
2022-12-08T16:37:30.515Z,1.17
2022-12-08T16:40:07.444Z,1.19
2022-12-08T16:42:50.947Z,1.19
2022-12-08T16:45:25.759Z,1.23
2022-12-08T16:48:00.562Z,1.25
2022-12-08T16:50:35.577Z,1.28
2022-12-08T16:53:14.762Z,1.31
2022-12-08T16:55:51.896Z,1.34
2022-12-08T16:58:24.370Z,1.35
2022-12-08T17:00:56.443Z,1.36
2022-12-08T17:03:30.495Z,1.36
2022-12-08T17:06:03.151Z,1.36
2022-12-08T17:08:45.510Z,1.37
2022-12-08T17:11:43.316Z,1.38
2022-12-08T17:14:20.022Z,1.42
2022-12-08T17:16:52.733Z,1.45
2022-12-08T17:19:25.211Z,1.48
2022-12-08T17:21:57.565Z,1.50
2022-12-08T17:24:32.579Z,1.51
2022-12-08T17:27:07.934Z,1.49
2022-12-08T17:29:40.245Z,1.48
2022-12-08T17:32:12.607Z,1.47
2022-12-08T17:34:49.639Z,1.46
2022-12-08T17:37:22.737Z,1.47
2022-12-08T17:39:54.781Z,1.49
2022-12-08T17:42:31.540Z,1.52
2022-12-08T17:45:12.667Z,1.54
2022-12-08T17:47:44.729Z,1.56
2022-12-08T17:50:20.105Z,1.58
2022-12-08T17:52:54.383Z,1.59
2022-12-08T17:55:27.646Z,1.57
2022-12-08T17:58:04.120Z,1.56
2022-12-08T18:00:41.075Z,1.55
2022-12-08T18:03:16.145Z,1.55
2022-12-08T18:05:51.020Z,1.57
2022-12-08T18:08:23.892Z,1.60
2022-12-08T18:10:57.344Z,1.62
2022-12-08T18:13:35.849Z,1.62
2022-12-08T18:16:11.660Z,1.61
2022-12-08T18:18:44.367Z,1.59
2022-12-08T18:21:23.058Z,1.56
2022-12-08T18:24:04.331Z,1.55
2022-12-08T18:26:40.628Z,1.54
2022-12-08T18:29:16.374Z,1.54
2022-12-08T18:31:50.305Z,1.56
2022-12-08T18:34:30.627Z,1.58
2022-12-08T18:37:03.068Z,1.59
2022-12-08T18:39:36.616Z,1.59
2022-12-08T18:42:23.974Z,1.56
2022-12-08T18:45:01.932Z,1.52
2022-12-08T18:47:36.577Z,1.50
2022-12-08T18:50:12.631Z,1.49
2022-12-08T18:52:49.343Z,1.47
2022-12-08T18:55:22.484Z,1.45
2022-12-08T18:57:54.978Z,1.43
2022-12-08T19:00:28.047Z,1.42
2022-12-08T19:03:01.697Z,1.38
2022-12-08T19:05:34.856Z,1.31
2022-12-08T19:08:12.439Z,1.19
2022-12-08T19:10:46.146Z,1.08
2022-12-08T19:13:20.836Z,0.99
2022-12-08T19:15:53.277Z,0.88
2022-12-08T19:18:28.001Z,0.82
2022-12-08T19:21:02.805Z,0.78
2022-12-08T19:23:36.910Z,0.76
2022-12-08T19:26:13.538Z,0.73
2022-12-08T19:28:46.850Z,0.70
2022-12-08T19:31:21.091Z,0.64
2022-12-08T19:33:56.277Z,0.60
2022-12-08T19:36:37.429Z,0.52
2022-12-08T19:39:37.830Z,0.44
2022-12-08T19:42:34.414Z,0.38
2022-12-08T19:45:13.198Z,0.36
2022-12-08T19:47:46.443Z,0.37
2022-12-08T19:50:41.722Z,0.37
2022-12-08T19:53:16.271Z,0.38
2022-12-08T19:55:48.692Z,0.39
2022-12-08T19:58:22.414Z,0.37
2022-12-08T20:00:55.109Z,0.34
2022-12-08T20:03:29.154Z,0.31
2022-12-08T20:06:01.427Z,0.27
2022-12-08T20:08:38.050Z,0.22
2022-12-08T20:11:17.706Z,0.19
2022-12-08T20:13:49.800Z,0.17
2022-12-08T20:16:25.835Z,0.16
2022-12-08T20:19:02.246Z,0.15
2022-12-08T20:21:37.732Z,0.17
2022-12-08T20:24:14.915Z,0.19
2022-12-08T20:26:51.490Z,0.19
2022-12-08T20:29:32.201Z,0.16
2022-12-08T20:32:12.228Z,0.12
2022-12-08T20:34:44.346Z,0.08
2022-12-08T20:37:26.160Z,0.00
2022-12-08T20:40:02.727Z,-0.06
2022-12-08T20:42:35.167Z,-0.11
2022-12-08T20:45:12.165Z,-0.15
2022-12-08T20:47:44.778Z,-0.16
2022-12-08T20:50:17.875Z,-0.16
2022-12-08T20:52:50.374Z,-0.18
2022-12-08T20:55:24.755Z,-0.20
2022-12-08T20:58:00.235Z,-0.24
2022-12-08T21:00:33.107Z,-0.28
2022-12-08T21:03:10.980Z,-0.31
2022-12-08T21:05:55.544Z,-0.37
2022-12-08T21:08:34.882Z,-0.42
2022-12-08T21:11:12.838Z,-0.44
2022-12-08T21:13:56.123Z,-0.44
2022-12-08T21:16:29.784Z,-0.44
2022-12-08T21:19:02.452Z,-0.42
2022-12-08T21:21:36.566Z,-0.42
2022-12-08T21:24:11.265Z,-0.42
2022-12-08T21:27:01.198Z,-0.43
2022-12-08T21:29:35.262Z,-0.46
2022-12-08T21:32:13.098Z,-0.50
2022-12-08T21:34:45.643Z,-0.53
2022-12-08T21:37:26.155Z,-0.55
2022-12-08T21:39:58.446Z,-0.55
2022-12-08T21:42:46.287Z,-0.56
2022-12-08T21:45:25.415Z,-0.54
2022-12-08T21:48:02.259Z,-0.53
2022-12-08T21:50:39.038Z,-0.52
2022-12-08T21:53:13.997Z,-0.50
2022-12-08T21:55:46.588Z,-0.49
2022-12-08T21:58:28.131Z,-0.53
2022-12-08T22:01:05.758Z,-0.59
2022-12-08T22:03:46.552Z,-0.63
2022-12-08T22:06:33.919Z,-0.66
2022-12-08T22:09:10.301Z,-0.69
2022-12-08T22:11:47.013Z,-0.68
2022-12-08T22:14:37.222Z,-0.67
2022-12-08T22:17:12.587Z,-0.66
2022-12-08T22:19:45.012Z,-0.62
2022-12-08T22:22:17.505Z,-0.62
2022-12-08T22:25:03.196Z,-0.64
2022-12-08T22:27:36.166Z,-0.69
2022-12-08T22:30:12.157Z,-0.74
2022-12-08T22:32:44.913Z,-0.82
2022-12-08T22:35:27.090Z,-0.85
2022-12-08T22:38:00.559Z,-0.86
2022-12-08T22:40:32.760Z,-0.85
2022-12-08T22:43:06.763Z,-0.83
2022-12-08T22:45:41.661Z,-0.84
2022-12-08T22:48:16.315Z,-0.83
2022-12-08T22:50:48.414Z,-0.80
2022-12-08T22:53:23.444Z,-0.80
2022-12-08T22:56:06.895Z,-0.80
2022-12-08T22:58:43.103Z,-0.84
2022-12-08T23:01:27.241Z,-0.89
2022-12-08T23:04:02.561Z,-0.94
2022-12-08T23:06:38.689Z,-0.94
2022-12-08T23:09:12.714Z,-0.93
2022-12-08T23:11:49.719Z,-0.91
2022-12-08T23:14:25.173Z,-0.88
2022-12-08T23:16:59.135Z,-0.87
2022-12-08T23:19:31.928Z,-0.85
2022-12-08T23:22:04.509Z,-0.88
2022-12-08T23:24:39.102Z,-0.87
2022-12-08T23:27:14.186Z,-0.87
2022-12-08T23:29:47.180Z,-0.93
2022-12-08T23:32:19.914Z,-0.98
2022-12-08T23:34:52.570Z,-1.00
2022-12-08T23:37:32.723Z,-1.03
2022-12-08T23:40:07.873Z,-1.04
2022-12-08T23:42:41.054Z,-1.05
2022-12-08T23:45:16.290Z,-1.05
2022-12-08T23:47:50.869Z,-1.03
2022-12-08T23:50:24.472Z,-1.02
2022-12-08T23:52:59.363Z,-1.03
2022-12-08T23:55:33.444Z,-1.07
2022-12-08T23:58:09.397Z,-1.10
